Terminal Aerodrome Forecast
Issued by NWS Fort Wayne, IN

Home | Current Version | Previous Version | Graphics & Text | Print | Product List | Glossary On
Versions: 1 2 3 4 5 6 7 8 9 10 11 12 13
000
FTUS43 KIWX 270500
TAFFWA
TAF
KFWA 270523Z 2706/2806 33006KT P6SM SCT070
     FM271500 34011KT P6SM BKN040
     FM280000 02005KT P6SM SCT040=

USA.gov is the U.S. government's official web portal to all federal, state and local government web resources and services.